Time;durP1;ratioP1;P1;durP2;ratioP2;P2;SDS_P1;SDS_P2;PMS_P1;PMS_P2;Temp;Humidity;BMP_temperature;BMP_pressure;BME280_temperature;BME280_humidity;BME280_pressure;Samples;Min_cycle;Max_cycle;Signal;HPM_P1;HPM_P2
2023/06/15 00:00:13;;;;;;;9.85;5.20;;;;;;;18.35;77.34;100219.89;1626456;88;21088;-60
2023/06/15 00:02:43;;;;;;;10.00;4.95;;;;;;;18.38;77.41;100218.00;1656681;85;21130;-60
2023/06/15 00:05:12;;;;;;;6.12;4.60;;;;;;;18.37;77.53;100211.61;1656400;85;21051;-59
2023/06/15 00:07:42;;;;;;;8.55;4.75;;;;;;;18.38;77.64;100216.61;1656574;87;21059;-60
2023/06/15 00:10:11;;;;;;;7.65;4.90;;;;;;;18.40;77.76;100219.97;1656427;87;21095;-62
2023/06/15 00:12:40;;;;;;;12.07;5.20;;;;;;;18.38;77.78;100213.29;1656498;87;22032;-59
2023/06/15 00:15:10;;;;;;;10.25;4.92;;;;;;;18.34;77.83;100212.12;1656460;87;21088;-59
2023/06/15 00:17:41;;;;;;;12.23;5.95;;;;;;;18.33;77.98;100212.38;1626392;87;21075;-59
2023/06/15 00:20:15;;;;;;;13.90;5.10;;;;;;;18.32;78.09;100202.37;1656632;87;21037;-60
2023/06/15 00:22:41;;;;;;;9.10;5.03;;;;;;;18.30;78.26;100202.63;1656527;87;21050;-59
2023/06/15 00:25:10;;;;;;;10.58;4.80;;;;;;;18.33;78.39;100206.27;1656550;87;21063;-60
2023/06/15 00:27:39;;;;;;;9.75;5.30;;;;;;;18.36;78.50;100207.16;1656553;85;21043;-60
2023/06/15 00:30:10;;;;;;;11.08;4.72;;;;;;;18.39;78.54;100207.20;1626390;87;21024;-60
2023/06/15 00:32:39;;;;;;;8.18;4.78;;;;;;;18.40;78.47;100209.42;1626384;88;21029;-60
2023/06/15 00:35:08;;;;;;;8.45;5.05;;;;;;;18.37;78.53;100210.77;1626316;88;21191;-61
2023/06/15 00:37:37;;;;;;;8.13;5.22;;;;;;;18.35;78.67;100217.12;1626648;88;21104;-61
2023/06/15 00:40:09;;;;;;;11.28;5.50;;;;;;;18.34;78.69;100208.50;1626331;88;21039;-60
2023/06/15 00:42:37;;;;;;;7.92;5.20;;;;;;;18.34;78.59;100214.89;1656590;87;21095;-60
2023/06/15 00:45:07;;;;;;;11.70;5.15;;;;;;;18.30;78.57;100212.88;1626546;88;21083;-59
2023/06/15 00:47:38;;;;;;;7.87;5.33;;;;;;;18.27;78.69;100213.38;1626445;87;21067;-61
2023/06/15 00:50:09;;;;;;;9.35;5.62;;;;;;;18.26;78.87;100214.48;1656486;86;21040;-59
2023/06/15 00:52:39;;;;;;;6.50;4.90;;;;;;;18.25;79.08;100216.95;1656720;86;21059;-61
2023/06/15 00:55:12;;;;;;;8.85;5.00;;;;;;;18.25;79.28;100215.57;1656443;86;21072;-61
2023/06/15 00:57:44;;;;;;;9.05;4.87;;;;;;;18.26;79.34;100214.48;1656732;87;21067;-60
2023/06/15 01:00:14;;;;;;;9.13;5.40;;;;;;;18.25;79.31;100216.95;1626428;88;21573;-60
2023/06/15 01:02:44;;;;;;;9.95;5.53;;;;;;;18.25;79.36;100214.19;1626497;88;21127;-60
2023/06/15 01:05:16;;;;;;;11.22;5.08;;;;;;;18.25;79.45;100215.57;1656597;87;21114;-61
2023/06/15 01:07:47;;;;;;;12.25;5.37;;;;;;;18.24;79.52;100216.66;1656412;85;21533;-60
2023/06/15 01:10:18;;;;;;;7.35;4.92;;;;;;;18.22;79.57;100215.53;1656627;87;21087;-60
2023/06/15 01:12:50;;;;;;;8.23;5.47;;;;;;;18.22;79.62;100220.23;1656595;87;21471;-60
2023/06/15 01:15:18;;;;;;;12.90;5.65;;;;;;;18.17;79.63;100218.19;1656738;87;21019;-60
2023/06/15 01:17:53;;;;;;;12.80;5.67;;;;;;;18.15;79.86;100220.37;1626559;88;21096;-60
2023/06/15 01:20:29;;;;;;;9.53;5.47;;;;;;;18.15;80.01;100214.83;1626301;87;21119;-60
2023/06/15 01:23:25;;;;;;;11.50;5.30;;;;;;;18.18;80.12;100210.70;1656638;86;21122;-59
2023/06/15 01:26:06;;;;;;;10.50;5.50;;;;;;;18.17;80.12;100208.48;1626371;87;21110;-60
2023/06/15 01:28:40;;;;;;;10.38;5.40;;;;;;;18.14;79.98;100208.98;1626426;88;21091;-60
2023/06/15 01:31:10;;;;;;;7.55;5.40;;;;;;;18.11;80.11;100212.81;1656475;85;21091;-60
2023/06/15 01:33:50;;;;;;;8.75;5.03;;;;;;;18.06;80.17;100213.02;1626505;87;21028;-60
2023/06/15 01:36:19;;;;;;;10.32;5.62;;;;;;;18.02;80.46;100209.06;1619793;87;21044;-60
2023/06/15 01:38:51;;;;;;;8.78;5.00;;;;;;;18.02;80.59;100204.91;1637779;87;21092;-60
2023/06/15 01:41:20;;;;;;;9.90;5.15;;;;;;;18.01;80.71;100207.93;1626675;88;21488;-61
2023/06/15 01:43:49;;;;;;;12.37;5.28;;;;;;;18.00;80.94;100204.32;1637315;87;21092;-61
2023/06/15 01:46:18;;;;;;;10.10;5.30;;;;;;;18.02;81.11;100201.30;1656488;86;21048;-61
2023/06/15 01:48:48;;;;;;;10.80;4.92;;;;;;;18.06;81.21;100208.02;1623877;86;21088;-60
2023/06/15 01:51:17;;;;;;;8.55;5.15;;;;;;;18.09;81.20;100204.74;1624744;88;21099;-60
2023/06/15 01:53:45;;;;;;;7.22;5.20;;;;;;;18.14;81.22;100206.76;1626971;88;21107;-59
2023/06/15 01:56:15;;;;;;;12.88;5.10;;;;;;;18.16;81.22;100210.13;1626959;88;21028;-59
2023/06/15 01:58:43;;;;;;;7.25;5.05;;;;;;;18.17;81.17;100202.94;1626654;87;21083;-60
2023/06/15 02:01:13;;;;;;;11.90;5.15;;;;;;;18.20;81.20;100202.98;1625574;88;21067;-58
2023/06/15 02:03:41;;;;;;;8.78;4.92;;;;;;;18.24;81.13;100201.41;1629574;87;21119;-62
2023/06/15 02:06:12;;;;;;;9.38;5.28;;;;;;;18.27;81.04;100200.91;1630558;86;21039;-62
2023/06/15 02:08:40;;;;;;;11.60;6.70;;;;;;;18.29;81.05;100201.48;1630326;87;21127;-58
2023/06/15 02:11:10;;;;;;;12.13;5.30;;;;;;;18.31;81.11;100203.46;1629155;88;21979;-60
2023/06/15 02:13:39;;;;;;;8.95;5.05;;;;;;;18.32;81.06;100206.53;1628526;88;21052;-60
2023/06/15 02:16:09;;;;;;;9.38;5.20;;;;;;;18.32;81.09;100204.59;1628357;87;21112;-60
2023/06/15 02:18:38;;;;;;;12.00;5.78;;;;;;;18.32;81.11;100199.59;1626890;88;21008;-60
2023/06/15 02:21:07;;;;;;;14.03;5.50;;;;;;;18.32;81.24;100203.21;1626938;88;21064;-59
2023/06/15 02:23:35;;;;;;;10.82;5.28;;;;;;;18.34;81.29;100204.34;1626220;88;21095;-60
2023/06/15 02:26:06;;;;;;;11.00;5.33;;;;;;;18.38;81.32;100201.35;1624922;88;21115;-59
2023/06/15 02:28:34;;;;;;;9.15;4.87;;;;;;;18.41;81.29;100200.00;1624891;88;21028;-59
2023/06/15 02:31:04;;;;;;;9.60;5.30;;;;;;;18.44;81.45;100201.72;1624681;88;21060;-60
2023/06/15 02:33:34;;;;;;;8.40;5.00;;;;;;;18.49;81.47;100200.96;1624918;88;21056;-59
2023/06/15 02:36:06;;;;;;;10.08;5.03;;;;;;;18.54;81.47;100198.27;1624687;87;21500;-59
2023/06/15 02:38:37;;;;;;;10.18;5.45;;;;;;;18.59;81.30;100201.95;1628170;87;21516;-59
2023/06/15 02:41:04;;;;;;;11.63;4.62;;;;;;;18.64;81.17;100203.45;1627318;87;21095;-59
2023/06/15 02:43:33;;;;;;;10.05;4.87;;;;;;;18.68;80.99;100199.06;1628643;88;21541;-60
2023/06/15 02:46:02;;;;;;;9.30;5.15;;;;;;;18.75;80.90;100196.65;1627653;87;21323;-59
2023/06/15 02:48:32;;;;;;;13.55;5.80;;;;;;;18.78;80.63;100188.64;1639568;86;21059;-59
2023/06/15 02:51:01;;;;;;;11.03;5.00;;;;;;;18.82;80.45;100198.14;1670311;86;21032;-60
2023/06/15 02:53:29;;;;;;;7.12;5.25;;;;;;;18.84;80.33;100188.16;1670117;86;21496;-60
2023/06/15 02:56:02;;;;;;;9.90;4.83;;;;;;;18.88;80.24;100190.75;1669932;86;21047;-59
2023/06/15 02:58:34;;;;;;;10.95;4.60;;;;;;;18.93;80.09;100190.81;1650973;86;21144;-60
2023/06/15 03:01:11;;;;;;;11.45;4.58;;;;;;;18.96;79.95;100188.36;1670537;85;22007;-60
2023/06/15 03:03:44;;;;;;;10.15;4.80;;;;;;;19.00;79.89;100190.91;1670060;85;21052;-60
2023/06/15 03:06:14;;;;;;;6.83;4.80;;;;;;;19.03;79.75;100184.00;1670113;86;21104;-59
2023/06/15 03:08:44;;;;;;;12.33;5.03;;;;;;;19.08;79.61;100181.84;1670055;86;21055;-60
2023/06/15 03:11:15;;;;;;;19.40;5.58;;;;;;;19.11;79.41;100189.66;1670337;86;21052;-59
2023/06/15 03:13:45;;;;;;;14.23;5.12;;;;;;;19.13;79.21;100189.69;1670176;86;21040;-59
2023/06/15 03:16:15;;;;;;;11.75;5.28;;;;;;;19.15;79.00;100185.26;1670022;86;21121;-59
2023/06/15 03:18:45;;;;;;;12.75;5.20;;;;;;;19.17;78.74;100197.79;1670293;86;21479;-59
2023/06/15 03:21:14;;;;;;;11.75;5.40;;;;;;;19.19;78.64;100188.64;1670272;86;21012;-59
2023/06/15 03:23:44;;;;;;;9.25;5.35;;;;;;;19.24;78.43;100194.27;1669938;86;21127;-60
2023/06/15 03:26:13;;;;;;;11.03;4.90;;;;;;;19.27;78.09;100190.13;1670182;86;21535;-60
2023/06/15 03:28:42;;;;;;;10.03;4.92;;;;;;;19.30;77.85;100196.55;1670241;86;21083;-59
2023/06/15 03:31:17;;;;;;;9.45;5.20;;;;;;;19.30;77.42;100190.44;1670193;86;21055;-60
2023/06/15 03:33:45;;;;;;;10.58;4.80;;;;;;;19.35;77.28;100193.83;1670185;86;21016;-59
2023/06/15 03:36:14;;;;;;;9.90;4.90;;;;;;;19.40;77.22;100195.83;1670020;86;21095;-59
2023/06/15 03:38:45;;;;;;;13.03;5.25;;;;;;;19.45;77.14;100194.49;1639507;87;21569;-59
2023/06/15 03:41:14;;;;;;;9.38;4.92;;;;;;;19.48;76.91;100193.97;1627832;88;21472;-60
2023/06/15 03:43:43;;;;;;;8.40;5.03;;;;;;;19.52;76.59;100192.38;1628736;87;21091;-60
2023/06/15 03:46:11;;;;;;;9.30;5.03;;;;;;;19.55;76.02;100193.27;1668065;85;21106;-59
2023/06/15 03:48:41;;;;;;;22.65;7.60;;;;;;;19.55;75.86;100194.11;1667977;86;21120;-60
2023/06/15 03:51:09;;;;;;;10.32;5.28;;;;;;;19.57;75.68;100189.13;1666278;85;21033;-59
2023/06/15 03:53:42;;;;;;;13.65;5.78;;;;;;;19.62;75.58;100193.91;1666290;85;21008;-60
2023/06/15 03:56:11;;;;;;;11.73;5.53;;;;;;;19.66;75.34;100189.50;1665944;86;21550;-60
2023/06/15 03:58:41;;;;;;;11.40;5.17;;;;;;;19.71;75.21;100189.55;1665943;86;21047;-60
2023/06/15 04:01:12;;;;;;;10.28;4.42;;;;;;;19.76;74.76;100185.98;1665995;85;21017;-60
2023/06/15 04:03:40;;;;;;;12.90;5.20;;;;;;;19.82;74.51;100185.77;1666001;86;21020;-61
2023/06/15 04:06:08;;;;;;;13.13;5.00;;;;;;;19.88;74.20;100187.48;1666113;86;21055;-60
2023/06/15 04:08:38;;;;;;;12.25;5.92;;;;;;;19.96;73.77;100181.98;1665978;85;21048;-60
2023/06/15 04:11:08;;;;;;;11.10;5.03;;;;;;;20.01;73.48;100182.59;1666121;86;21101;-60
2023/06/15 04:13:38;;;;;;;9.68;4.90;;;;;;;20.07;73.33;100184.31;1665913;86;21545;-60
2023/06/15 04:16:07;;;;;;;15.68;6.17;;;;;;;20.15;72.81;100183.81;1666170;86;21069;-61
2023/06/15 04:18:36;;;;;;;10.13;5.00;;;;;;;20.22;72.30;100188.63;1665808;85;21095;-60
2023/06/15 04:21:05;;;;;;;7.15;5.05;;;;;;;20.29;72.15;100193.41;1666153;85;21044;-60
2023/06/15 04:23:35;;;;;;;8.83;4.58;;;;;;;20.37;71.84;100187.91;1665823;86;21044;-61
2023/06/15 04:26:04;;;;;;;11.08;5.47;;;;;;;20.43;71.72;100183.53;1665972;86;21080;-60
2023/06/15 04:28:35;;;;;;;9.80;5.08;;;;;;;20.51;71.29;100191.38;1666345;86;21120;-60
2023/06/15 04:31:12;;;;;;;13.30;4.65;;;;;;;20.60;70.50;100190.88;1665984;85;21091;-61
2023/06/15 04:33:42;;;;;;;12.50;5.22;;;;;;;20.65;69.97;100182.55;1665917;86;21179;-60
2023/06/15 04:36:12;;;;;;;12.07;4.50;;;;;;;20.71;69.47;100178.69;1665756;85;21052;-62
2023/06/15 04:38:49;;;;;;;8.30;4.60;;;;;;;20.75;69.20;100184.00;1665847;86;21546;-59
2023/06/15 04:41:27;;;;;;;9.00;4.65;;;;;;;20.79;68.53;100182.35;1666133;86;21059;-60
2023/06/15 04:43:57;;;;;;;10.43;4.28;;;;;;;20.81;68.25;100179.61;1666022;85;21044;-60
2023/06/15 04:46:27;;;;;;;8.90;4.55;;;;;;;20.83;67.77;100182.13;1665991;85;21099;-61
2023/06/15 04:48:57;;;;;;;11.30;4.28;;;;;;;20.86;67.35;100184.37;1666140;86;21064;-60
2023/06/15 04:51:26;;;;;;;9.93;4.20;;;;;;;20.91;67.29;100180.77;1667814;86;21248;-60
2023/06/15 04:53:56;;;;;;;11.40;4.12;;;;;;;20.95;66.86;100189.70;1668171;86;21052;-60
2023/06/15 04:56:24;;;;;;;8.63;4.30;;;;;;;21.02;66.26;100183.88;1667981;86;21067;-61
2023/06/15 04:58:55;;;;;;;7.80;4.55;;;;;;;21.15;65.74;100181.44;1667779;86;21091;-59
2023/06/15 05:01:24;;;;;;;8.58;4.65;;;;;;;21.36;65.39;100180.97;1668076;86;21159;-61
2023/06/15 05:03:54;;;;;;;10.70;4.08;;;;;;;21.59;64.56;100182.45;1670026;85;21254;-59
2023/06/15 05:06:23;;;;;;;11.03;4.25;;;;;;;21.87;63.07;100185.28;1669803;86;21083;-61
2023/06/15 05:08:52;;;;;;;10.32;4.10;;;;;;;22.12;62.05;100176.98;1670105;86;21063;-59
2023/06/15 05:11:23;;;;;;;6.35;3.92;;;;;;;22.38;60.95;100183.94;1670070;86;21052;-61
2023/06/15 05:13:51;;;;;;;5.10;3.90;;;;;;;22.68;59.89;100181.65;1670161;86;21024;-60
2023/06/15 05:16:20;;;;;;;9.18;4.15;;;;;;;22.99;59.03;100179.09;1669935;86;21047;-59
2023/06/15 05:18:50;;;;;;;6.00;3.80;;;;;;;23.26;57.09;100177.86;1670039;86;21095;-60
2023/06/15 05:21:19;;;;;;;7.97;4.15;;;;;;;23.46;56.62;100184.77;1670229;86;21016;-59
2023/06/15 05:23:48;;;;;;;7.08;3.70;;;;;;;23.69;55.59;100191.09;1670147;85;21223;-60
2023/06/15 05:26:19;;;;;;;8.33;4.00;;;;;;;23.92;55.41;100184.50;1672002;86;21087;-59
2023/06/15 05:28:51;;;;;;;8.10;4.10;;;;;;;24.20;54.49;100185.14;1672864;86;21024;-60
2023/06/15 05:31:19;;;;;;;6.03;3.58;;;;;;;24.57;53.62;100189.30;1672626;85;21079;-60
2023/06/15 05:33:48;;;;;;;10.53;4.15;;;;;;;24.85;52.62;100190.43;1672422;85;21040;-59
2023/06/15 05:36:16;;;;;;;16.10;4.40;;;;;;;25.06;51.18;100188.25;1671035;86;21087;-59
2023/06/15 05:38:47;;;;;;;12.30;4.78;;;;;;;25.16;50.63;100188.12;1670314;86;21051;-60
2023/06/15 05:41:16;;;;;;;6.65;3.65;;;;;;;25.21;50.63;100187.50;1670329;86;21047;-59
2023/06/15 05:43:44;;;;;;;8.93;4.00;;;;;;;25.30;50.24;100190.47;1670272;86;21060;-60
2023/06/15 05:46:15;;;;;;;8.70;3.87;;;;;;;25.49;49.80;100194.73;1669938;86;21083;-60
2023/06/15 05:48:44;;;;;;;8.85;3.67;;;;;;;25.71;48.96;100194.17;1670170;86;21072;-60
2023/06/15 05:51:13;;;;;;;12.20;4.10;;;;;;;25.65;48.27;100194.78;1626389;86;21095;-61
2023/06/15 05:53:42;;;;;;;8.40;4.10;;;;;;;25.52;48.08;100203.95;1625638;88;21546;-62
2023/06/15 05:56:11;;;;;;;6.80;4.25;;;;;;;25.37;48.44;100204.98;1625376;87;21479;-61
2023/06/15 05:58:41;;;;;;;9.43;3.77;;;;;;;25.21;48.56;100201.52;1626333;88;21052;-60
2023/06/15 06:01:11;;;;;;;7.15;4.03;;;;;;;25.12;49.03;100202.48;1624853;87;21052;-61
2023/06/15 06:03:41;;;;;;;9.10;3.87;;;;;;;25.01;47.88;100196.16;1626067;88;21117;-61
2023/06/15 06:06:10;;;;;;;10.35;4.28;;;;;;;24.96;47.99;100205.44;1625689;87;21060;-63
2023/06/15 06:08:39;;;;;;;8.68;4.28;;;;;;;24.95;48.32;100201.53;1624879;87;21064;-61
2023/06/15 06:11:09;;;;;;;16.05;4.08;;;;;;;25.09;48.15;100206.72;1627258;88;21111;-60
2023/06/15 06:13:40;;;;;;;16.85;4.95;;;;;;;25.18;47.75;100206.89;1624794;87;21048;-62
2023/06/15 06:16:09;;;;;;;7.22;4.22;;;;;;;25.19;48.05;100207.99;1626620;88;21052;-60
2023/06/15 06:18:38;;;;;;;7.47;4.20;;;;;;;25.25;47.93;100203.98;1624886;88;21453;-60
2023/06/15 06:21:06;;;;;;;8.90;4.08;;;;;;;25.28;47.67;100210.97;1624936;87;21096;-60
2023/06/15 06:23:36;;;;;;;14.80;4.58;;;;;;;25.29;47.98;100214.04;1624865;88;21220;-59
2023/06/15 06:26:05;;;;;;;8.40;4.20;;;;;;;25.27;47.82;100212.11;1626921;87;21495;-60
2023/06/15 06:28:35;;;;;;;11.10;4.42;;;;;;;25.25;48.03;100212.41;1627099;87;21052;-61
2023/06/15 06:31:03;;;;;;;8.25;4.35;;;;;;;25.34;47.63;100203.33;1627066;88;21043;-58
2023/06/15 06:33:32;;;;;;;9.25;3.45;;;;;;;25.36;47.55;100208.93;1625779;88;21040;-61
2023/06/15 06:36:01;;;;;;;8.23;3.58;;;;;;;25.36;47.08;100201.05;1624948;87;21494;-60
2023/06/15 06:38:29;;;;;;;10.35;4.60;;;;;;;25.43;46.61;100212.20;1624929;88;21055;-60
2023/06/15 06:40:59;;;;;;;6.60;3.95;;;;;;;25.46;46.54;100205.98;1625047;88;21076;-61
2023/06/15 06:43:27;;;;;;;12.03;3.80;;;;;;;25.51;46.08;100208.73;1625048;88;21091;-61
2023/06/15 06:45:56;;;;;;;5.25;3.85;;;;;;;25.66;46.34;100200.69;1624823;87;21110;-61
2023/06/15 06:48:26;;;;;;;5.95;3.77;;;;;;;25.89;46.65;100202.58;1626058;87;21064;-59
2023/06/15 06:50:55;;;;;;;7.58;4.35;;;;;;;26.32;45.77;100198.83;1656475;84;21063;-60
2023/06/15 06:53:23;;;;;;;8.45;3.90;;;;;;;26.72;44.89;100195.91;1670057;86;21145;-60
2023/06/15 06:55:52;;;;;;;8.23;3.98;;;;;;;27.02;44.22;100202.95;1670070;85;21055;-60
2023/06/15 06:58:22;;;;;;;13.60;4.40;;;;;;;27.20;43.57;100202.00;1670242;85;21071;-61
2023/06/15 07:00:51;;;;;;;10.95;4.65;;;;;;;27.32;43.29;100192.50;1670343;86;21056;-60
2023/06/15 07:03:21;;;;;;;7.90;4.10;;;;;;;27.44;42.84;100197.58;1670236;86;21122;-62
2023/06/15 07:05:50;;;;;;;12.78;4.85;;;;;;;27.47;42.90;100191.33;1670279;86;21087;-61
2023/06/15 07:08:20;;;;;;;8.98;4.10;;;;;;;27.58;43.11;100190.52;1670219;86;21095;-62
2023/06/15 07:10:49;;;;;;;13.32;4.12;;;;;;;27.77;42.92;100195.45;1670396;86;21095;-62
2023/06/15 07:13:18;;;;;;;8.90;4.17;;;;;;;27.97;42.61;100189.37;1670109;86;21500;-62
2023/06/15 07:15:49;;;;;;;11.93;4.05;;;;;;;28.22;42.35;100187.07;1670227;85;21535;-61
2023/06/15 07:18:18;;;;;;;6.95;4.62;;;;;;;28.49;42.14;100188.36;1670029;85;21515;-60
2023/06/15 07:20:53;;;;;;;9.93;5.08;;;;;;;28.71;41.50;100184.12;1670277;85;21056;-60
2023/06/15 07:23:19;;;;;;;7.53;3.77;;;;;;;28.82;41.10;100190.88;1670062;86;21016;-61
2023/06/15 07:25:52;;;;;;;9.45;3.77;;;;;;;28.88;40.35;100185.38;1670222;85;21099;-61
2023/06/15 07:28:21;;;;;;;9.88;4.20;;;;;;;28.98;40.14;100185.09;1670150;86;21063;-61
2023/06/15 07:30:50;;;;;;;9.50;3.83;;;;;;;29.13;39.77;100186.64;1670083;86;21064;-60
2023/06/15 07:33:19;;;;;;;7.95;3.80;;;;;;;29.27;39.19;100187.38;1670144;85;21151;-61
2023/06/15 07:35:49;;;;;;;11.10;4.10;;;;;;;29.30;38.50;100190.38;1670197;86;21095;-60
2023/06/15 07:38:18;;;;;;;8.93;3.67;;;;;;;29.35;38.20;100185.16;1652323;85;21452;-61
2023/06/15 07:40:47;;;;;;;7.75;3.60;;;;;;;29.37;37.94;100200.36;1667890;86;21550;-60
2023/06/15 07:43:20;;;;;;;12.05;4.10;;;;;;;29.29;37.66;100188.72;1651954;85;21077;-61
2023/06/15 07:45:51;;;;;;;6.60;3.60;;;;;;;29.34;37.87;100189.14;1629304;87;21091;-62
2023/06/15 07:48:25;;;;;;;7.97;3.22;;;;;;;29.30;37.75;100181.08;1602615;89;21127;-63
2023/06/15 07:50:54;;;;;;;5.75;3.30;;;;;;;29.51;37.46;100182.73;1631441;87;21107;-63
2023/06/15 07:53:23;;;;;;;8.48;3.40;;;;;;;29.68;37.33;100184.17;1640141;86;21700;-61
2023/06/15 07:55:52;;;;;;;8.53;3.85;;;;;;;29.77;37.27;100174.29;1641192;87;21533;-62
2023/06/15 07:58:21;;;;;;;12.33;3.75;;;;;;;29.81;36.96;100177.53;1641207;87;21092;-61
2023/06/15 08:00:50;;;;;;;9.20;3.95;;;;;;;29.85;36.65;100172.87;1601875;87;21076;-63
2023/06/15 08:03:20;;;;;;;11.12;4.03;;;;;;;29.94;36.50;100171.50;1597276;90;21035;-62
2023/06/15 08:05:49;;;;;;;10.80;3.58;;;;;;;30.03;36.49;100175.18;1571081;91;21071;-63
2023/06/15 08:08:19;;;;;;;10.13;5.08;;;;;;;30.13;36.45;100174.01;1583682;90;21092;-62
2023/06/15 08:10:49;;;;;;;6.20;3.70;;;;;;;30.26;35.91;100188.54;1597095;90;21123;-63
2023/06/15 08:13:18;;;;;;;10.72;3.90;;;;;;;30.06;35.86;100177.92;1583570;91;21091;-62
2023/06/15 08:15:48;;;;;;;7.40;2.90;;;;;;;29.73;37.05;100178.94;1597211;89;21092;-65
2023/06/15 08:18:19;;;;;;;5.42;3.20;;;;;;;29.62;36.75;100184.08;1592116;89;21076;-61
2023/06/15 08:20:48;;;;;;;7.50;3.35;;;;;;;29.64;36.55;100175.53;1660681;86;21520;-64
2023/06/15 08:23:16;;;;;;;9.30;3.52;;;;;;;29.66;36.79;100173.20;1660754;85;21137;-63
2023/06/15 08:25:47;;;;;;;9.33;4.85;;;;;;;29.70;36.84;100175.36;1656440;86;21524;-63
2023/06/15 08:28:17;;;;;;;15.10;5.60;;;;;;;29.52;36.46;100172.52;1656739;86;21150;-64
2023/06/15 08:30:45;;;;;;;5.55;3.70;;;;;;;29.17;37.68;100180.02;1656651;86;21110;-63
2023/06/15 08:33:16;;;;;;;8.75;4.90;;;;;;;28.97;38.03;100178.63;1656578;86;22061;-63
2023/06/15 08:35:46;;;;;;;8.78;3.90;;;;;;;28.81;38.07;100178.77;1656547;86;21038;-62
2023/06/15 08:38:14;;;;;;;7.75;3.20;;;;;;;28.72;38.54;100178.73;1656564;86;21153;-62
2023/06/15 08:40:43;;;;;;;9.00;4.28;;;;;;;28.68;38.19;100179.70;1656647;86;20999;-64
2023/06/15 08:43:12;;;;;;;8.58;3.80;;;;;;;28.63;38.73;100174.20;1656620;86;21046;-61
2023/06/15 08:45:41;;;;;;;11.43;4.35;;;;;;;28.75;38.64;100169.37;1656637;86;21087;-62
2023/06/15 08:48:11;;;;;;;7.75;3.50;;;;;;;28.76;38.43;100182.31;1656345;86;21010;-62
2023/06/15 08:50:40;;;;;;;6.15;3.40;;;;;;;28.47;38.68;100172.34;1667225;83;21043;-63
2023/06/15 08:53:11;;;;;;;5.58;3.70;;;;;;;28.27;38.96;100178.52;1689731;85;21067;-64
2023/06/15 08:55:40;;;;;;;6.03;3.52;;;;;;;28.23;39.17;100171.83;1678249;85;21055;-63
2023/06/15 08:58:10;;;;;;;7.03;3.72;;;;;;;28.21;38.96;100174.13;1697828;83;21486;-64
2023/06/15 09:00:39;;;;;;;7.97;4.00;;;;;;;28.20;38.93;100185.98;1697587;85;21046;-63
2023/06/15 09:03:09;;;;;;;7.30;3.20;;;;;;;28.17;38.67;100180.16;1696925;84;21050;-64
2023/06/15 09:05:38;;;;;;;8.58;3.30;;;;;;;27.94;38.73;100175.89;1695052;84;21071;-64
2023/06/15 09:08:07;;;;;;;7.72;3.12;;;;;;;27.53;40.42;100179.37;1694941;85;21070;-64
2023/06/15 09:10:41;;;;;;;5.08;3.22;;;;;;;27.53;40.42;100179.37;1694823;84;21110;-62
2023/06/15 09:13:16;;;;;;;9.90;4.00;;;;;;;27.50;39.86;100178.03;1694518;84;21035;-62
2023/06/15 09:15:50;;;;;;;8.45;3.42;;;;;;;27.39;40.23;100176.02;1694816;85;21080;-63
2023/06/15 09:18:16;;;;;;;13.95;3.80;;;;;;;27.39;40.23;100176.02;1675567;85;21011;-63
2023/06/15 09:20:44;;;;;;;14.90;4.22;;;;;;;27.35;40.21;100177.80;1694752;85;21658;-63
2023/06/15 09:23:13;;;;;;;7.95;3.77;;;;;;;27.20;40.95;100175.86;1694918;85;21094;-64
2023/06/15 09:25:54;;;;;;;9.33;3.40;;;;;;;26.98;40.59;100178.00;1694752;84;21098;-63
2023/06/15 09:28:28;;;;;;;9.18;3.62;;;;;;;26.98;40.59;100178.00;1694811;85;21031;-61
2023/06/15 09:30:57;;;;;;;7.17;3.30;;;;;;;26.86;40.94;100174.27;1694863;85;21031;-64
2023/06/15 09:33:44;;;;;;;7.20;3.42;;;;;;;26.75;40.97;100180.66;1695021;85;21043;-66
2023/06/15 09:36:20;;;;;;;12.00;3.60;;;;;;;26.62;41.47;100177.80;1694774;85;21532;-61
2023/06/15 09:38:54;;;;;;;10.30;4.53;;;;;;;26.47;42.45;100184.54;1694858;84;21039;-62
2023/06/15 09:41:22;;;;;;;6.83;3.30;;;;;;;26.37;42.30;100185.56;1694915;85;21011;-63
2023/06/15 09:43:51;;;;;;;6.87;3.10;;;;;;;26.30;42.22;100181.45;1694717;85;21012;-64
2023/06/15 09:46:20;;;;;;;11.03;3.45;;;;;;;26.22;42.14;100171.75;1694750;83;21070;-62
2023/06/15 09:48:49;;;;;;;11.03;3.77;;;;;;;26.17;42.53;100183.08;1694929;85;21075;-63
2023/06/15 09:51:18;;;;;;;11.33;3.65;;;;;;;26.17;42.64;100178.86;1675185;84;21051;-62
2023/06/15 09:53:48;;;;;;;8.13;3.27;;;;;;;26.21;42.67;100184.13;1655427;87;21114;-62
2023/06/15 09:56:17;;;;;;;10.93;5.45;;;;;;;26.26;42.97;100188.83;1626143;87;21052;-62
2023/06/15 09:58:48;;;;;;;8.75;3.65;;;;;;;26.30;42.87;100178.64;1626868;87;21095;-62
2023/06/15 10:01:18;;;;;;;7.05;3.25;;;;;;;26.32;42.40;100193.21;1625723;88;21091;-63
2023/06/15 10:03:52;;;;;;;7.85;3.60;;;;;;;26.34;42.38;100192.37;1629217;88;21123;-63
2023/06/15 10:06:22;;;;;;;10.30;3.12;;;;;;;26.32;42.39;100186.19;1646955;86;21096;-62
2023/06/15 10:08:53;;;;;;;7.37;3.60;;;;;;;26.30;42.31;100186.50;1627027;87;21118;-64
2023/06/15 10:11:22;;;;;;;8.50;4.42;;;;;;;26.31;42.48;100190.14;1626119;87;21083;-65
2023/06/15 10:14:00;;;;;;;13.65;4.92;;;;;;;26.29;42.66;100182.59;1656186;87;21126;-62
2023/06/15 10:16:30;;;;;;;9.95;3.50;;;;;;;26.28;42.72;100180.92;1626041;87;21099;-63
2023/06/15 10:19:05;;;;;;;6.22;3.20;;;;;;;26.29;42.43;100191.02;1656009;87;21079;-62
2023/06/15 10:21:36;;;;;;;7.55;3.65;;;;;;;26.27;42.36;100192.73;1628611;88;21099;-62
2023/06/15 10:24:11;;;;;;;12.18;3.98;;;;;;;26.25;42.15;100192.77;1629036;88;21083;-63
2023/06/15 10:26:40;;;;;;;8.78;3.12;;;;;;;26.27;41.31;100182.06;1626385;87;21067;-63
2023/06/15 10:29:14;;;;;;;6.83;3.22;;;;;;;26.28;41.42;100190.19;1656373;86;21187;-62
2023/06/15 10:31:52;;;;;;;6.83;3.40;;;;;;;26.28;41.68;100187.38;1626301;87;21020;-62
2023/06/15 10:34:30;;;;;;;10.35;3.20;;;;;;;26.28;40.87;100185.97;1626161;87;21118;-63
2023/06/15 10:37:25;;;;;;;9.60;3.72;;;;;;;26.26;41.55;100187.42;1628566;88;21228;-62
2023/06/15 10:39:55;;;;;;;6.83;3.05;;;;;;;26.29;41.40;100183.99;1656208;87;21500;-65
2023/06/15 10:42:25;;;;;;;5.72;3.00;;;;;;;26.33;41.44;100172.44;1597149;87;21885;-66
2023/06/15 10:44:58;;;;;;;8.28;2.83;;;;;;;26.37;41.46;100176.30;1592307;88;21138;-65
2023/06/15 10:47:26;;;;;;;7.25;3.22;;;;;;;26.45;41.19;100172.78;1634148;87;21538;-64
2023/06/15 10:49:55;;;;;;;10.35;4.00;;;;;;;26.56;41.03;100174.83;1628644;88;21048;-65
2023/06/15 10:52:30;;;;;;;6.55;2.92;;;;;;;26.68;40.82;100173.21;1686134;84;21118;-67
2023/06/15 10:55:06;;;;;;;;;;;;;;;26.79;40.45;100171.88;1692790;85;21067;-66
2023/06/15 10:57:36;;;;;;;9.35;2.87;;;;;;;26.87;40.45;100177.91;1673154;85;20509;-67
2023/06/15 11:00:08;;;;;;;5.83;2.92;;;;;;;26.93;40.47;100178.07;1690268;85;21507;-66
2023/06/15 11:02:50;;;;;;;9.03;3.20;;;;;;;27.01;40.26;100173.16;1685433;84;21479;-67
2023/06/15 11:05:21;;;;;;;8.15;3.30;;;;;;;27.05;40.23;100166.59;1682158;85;21486;-65
2023/06/15 11:07:51;;;;;;;7.25;3.47;;;;;;;27.07;40.27;100171.91;1680004;85;21455;-65
2023/06/15 11:10:28;;;;;;;10.50;3.08;;;;;;;27.03;40.11;100173.67;1684218;84;21012;-67
2023/06/15 11:13:03;;;;;;;7.58;4.08;;;;;;;27.01;40.19;100173.16;1683443;85;21039;-68
2023/06/15 11:15:36;;;;;;;7.12;3.47;;;;;;;27.00;39.80;100175.70;1683371;85;21044;-67
2023/06/15 11:18:07;;;;;;;11.68;3.80;;;;;;;26.97;39.60;100174.32;1682522;84;21059;-68
2023/06/15 11:20:42;;;;;;;8.65;4.42;;;;;;;26.98;39.74;100175.19;1679480;85;21090;-62
2023/06/15 11:23:14;;;;;;;10.30;4.60;;;;;;;26.96;39.15;100176.88;1660951;85;21481;-62
2023/06/15 11:25:44;;;;;;;7.25;3.02;;;;;;;26.90;39.30;100175.31;1684510;85;21051;-64
2023/06/15 11:28:21;;;;;;;6.60;3.27;;;;;;;26.85;39.13;100177.66;1682758;85;21055;-60
2023/06/15 11:30:54;;;;;;;8.65;3.22;;;;;;;26.79;39.23;100177.49;1683897;84;21505;-62
2023/06/15 11:33:36;;;;;;;6.97;3.20;;;;;;;26.72;39.21;100172.02;1685518;83;21042;-63
2023/06/15 11:36:06;;;;;;;8.65;3.20;;;;;;;26.69;39.35;100172.64;1684616;85;21490;-62